sensor_id;sensor_type;location;lat;lon;timestamp;P1;durP1;ratioP1;P2;durP2;ratioP2
20161;SDS011;51382;53.180;15.414;2022-08-30T00:07:39;28.50;;;2.80;;
20161;SDS011;51382;53.180;15.414;2022-08-30T00:22:50;29.50;;;3.10;;
20161;SDS011;51382;53.180;15.414;2022-08-30T00:38:02;34.10;;;3.30;;
20161;SDS011;51382;53.180;15.414;2022-08-30T00:53:16;32.00;;;3.40;;
20161;SDS011;51382;53.180;15.414;2022-08-30T01:08:28;30.00;;;2.80;;
20161;SDS011;51382;53.180;15.414;2022-08-30T01:23:42;17.60;;;2.00;;
20161;SDS011;51382;53.180;15.414;2022-08-30T01:38:50;22.90;;;2.30;;
20161;SDS011;51382;53.180;15.414;2022-08-30T01:54:02;29.40;;;2.90;;
20161;SDS011;51382;53.180;15.414;2022-08-30T02:09:13;25.50;;;2.40;;
20161;SDS011;51382;53.180;15.414;2022-08-30T02:24:24;21.40;;;2.10;;
20161;SDS011;51382;53.180;15.414;2022-08-30T02:39:35;27.40;;;2.60;;
20161;SDS011;51382;53.180;15.414;2022-08-30T02:54:41;29.70;;;2.70;;
20161;SDS011;51382;53.180;15.414;2022-08-30T03:09:47;19.40;;;1.70;;
20161;SDS011;51382;53.180;15.414;2022-08-30T03:24:59;29.20;;;3.70;;
20161;SDS011;51382;53.180;15.414;2022-08-30T03:40:12;15.40;;;1.50;;
20161;SDS011;51382;53.180;15.414;2022-08-30T03:55:23;23.80;;;2.40;;
20161;SDS011;51382;53.180;15.414;2022-08-30T04:10:37;22.30;;;2.00;;
20161;SDS011;51382;53.180;15.414;2022-08-30T04:25:42;36.10;;;3.30;;
20161;SDS011;51382;53.180;15.414;2022-08-30T04:40:48;29.90;;;3.30;;
20161;SDS011;51382;53.180;15.414;2022-08-30T04:56:00;22.90;;;2.20;;
20161;SDS011;51382;53.180;15.414;2022-08-30T05:11:12;21.30;;;2.00;;
20161;SDS011;51382;53.180;15.414;2022-08-30T05:26:20;20.90;;;2.00;;
20161;SDS011;51382;53.180;15.414;2022-08-30T05:41:31;25.90;;;2.30;;
20161;SDS011;51382;53.180;15.414;2022-08-30T05:56:44;20.30;;;2.00;;
20161;SDS011;51382;53.180;15.414;2022-08-30T06:11:55;19.70;;;2.10;;
20161;SDS011;51382;53.180;15.414;2022-08-30T06:27:08;18.90;;;2.00;;
20161;SDS011;51382;53.180;15.414;2022-08-30T06:42:19;19.40;;;2.00;;
20161;SDS011;51382;53.180;15.414;2022-08-30T06:57:31;30.40;;;2.80;;
20161;SDS011;51382;53.180;15.414;2022-08-30T07:12:42;47.30;;;4.50;;
20161;SDS011;51382;53.180;15.414;2022-08-30T07:27:52;34.80;;;3.00;;
20161;SDS011;51382;53.180;15.414;2022-08-30T07:43:05;15.60;;;1.50;;
20161;SDS011;51382;53.180;15.414;2022-08-30T07:58:16;19.90;;;2.00;;
20161;SDS011;51382;53.180;15.414;2022-08-30T08:13:27;20.20;;;2.10;;
20161;SDS011;51382;53.180;15.414;2022-08-30T08:28:38;24.70;;;2.20;;
20161;SDS011;51382;53.180;15.414;2022-08-30T08:43:49;14.40;;;1.60;;
20161;SDS011;51382;53.180;15.414;2022-08-30T08:59:00;36.70;;;3.60;;
20161;SDS011;51382;53.180;15.414;2022-08-30T09:14:11;16.40;;;1.70;;
20161;SDS011;51382;53.180;15.414;2022-08-30T09:29:23;21.30;;;2.30;;
20161;SDS011;51382;53.180;15.414;2022-08-30T09:44:37;22.50;;;2.40;;
20161;SDS011;51382;53.180;15.414;2022-08-30T09:59:55;19.10;;;2.20;;
20161;SDS011;51382;53.180;15.414;2022-08-30T10:15:11;23.80;;;2.60;;
20161;SDS011;51382;53.180;15.414;2022-08-30T10:30:23;20.50;;;2.00;;
20161;SDS011;51382;53.180;15.414;2022-08-30T10:45:39;20.90;;;2.50;;
20161;SDS011;51382;53.180;15.414;2022-08-30T11:00:57;23.00;;;2.60;;
20161;SDS011;51382;53.180;15.414;2022-08-30T11:16:07;21.00;;;2.20;;
20161;SDS011;51382;53.180;15.414;2022-08-30T11:31:40;30.00;;;2.90;;
20161;SDS011;51382;53.180;15.414;2022-08-30T11:46:52;13.00;;;1.80;;
20161;SDS011;51382;53.180;15.414;2022-08-30T12:01:59;22.70;;;2.30;;
20161;SDS011;51382;53.180;15.414;2022-08-30T12:17:23;14.80;;;1.50;;
20161;SDS011;51382;53.180;15.414;2022-08-30T12:32:52;27.50;;;2.80;;
20161;SDS011;51382;53.180;15.414;2022-08-30T12:48:05;24.10;;;2.90;;
20161;SDS011;51382;53.180;15.414;2022-08-30T13:03:32;18.20;;;1.90;;
20161;SDS011;51382;53.180;15.414;2022-08-30T13:18:46;25.10;;;2.90;;
20161;SDS011;51382;53.180;15.414;2022-08-30T13:33:57;23.80;;;2.30;;
20161;SDS011;51382;53.180;15.414;2022-08-30T13:49:14;17.20;;;1.90;;
20161;SDS011;51382;53.180;15.414;2022-08-30T14:04:27;19.70;;;2.10;;
20161;SDS011;51382;53.180;15.414;2022-08-30T14:19:38;30.30;;;3.10;;
20161;SDS011;51382;53.180;15.414;2022-08-30T14:34:45;32.60;;;3.20;;
20161;SDS011;51382;53.180;15.414;2022-08-30T14:49:56;30.40;;;3.20;;
20161;SDS011;51382;53.180;15.414;2022-08-30T15:05:10;33.70;;;3.20;;
20161;SDS011;51382;53.180;15.414;2022-08-30T15:20:16;32.20;;;2.90;;
20161;SDS011;51382;53.180;15.414;2022-08-30T15:35:23;29.40;;;2.90;;
20161;SDS011;51382;53.180;15.414;2022-08-30T15:50:34;16.40;;;1.70;;
20161;SDS011;51382;53.180;15.414;2022-08-30T16:05:45;25.50;;;2.50;;
20161;SDS011;51382;53.180;15.414;2022-08-30T16:21:04;20.20;;;2.00;;
20161;SDS011;51382;53.180;15.414;2022-08-30T16:36:16;49.10;;;4.70;;
20161;SDS011;51382;53.180;15.414;2022-08-30T16:51:25;23.90;;;2.40;;
20161;SDS011;51382;53.180;15.414;2022-08-30T17:06:36;21.30;;;2.20;;
20161;SDS011;51382;53.180;15.414;2022-08-30T17:21:47;28.70;;;3.00;;
20161;SDS011;51382;53.180;15.414;2022-08-30T17:36:58;30.50;;;3.10;;
20161;SDS011;51382;53.180;15.414;2022-08-30T17:52:09;21.40;;;2.30;;
20161;SDS011;51382;53.180;15.414;2022-08-30T18:07:21;24.80;;;2.50;;
20161;SDS011;51382;53.180;15.414;2022-08-30T18:22:32;20.30;;;2.40;;
20161;SDS011;51382;53.180;15.414;2022-08-30T18:37:43;22.40;;;2.70;;
20161;SDS011;51382;53.180;15.414;2022-08-30T18:52:49;27.90;;;3.20;;
20161;SDS011;51382;53.180;15.414;2022-08-30T19:08:03;43.70;;;3.90;;
20161;SDS011;51382;53.180;15.414;2022-08-30T19:23:15;49.70;;;4.60;;
20161;SDS011;51382;53.180;15.414;2022-08-30T19:38:27;63.10;;;5.90;;
20161;SDS011;51382;53.180;15.414;2022-08-30T19:53:33;66.30;;;6.20;;
20161;SDS011;51382;53.180;15.414;2022-08-30T20:08:47;52.60;;;4.90;;
20161;SDS011;51382;53.180;15.414;2022-08-30T20:23:53;35.00;;;3.60;;
20161;SDS011;51382;53.180;15.414;2022-08-30T20:39:07;59.30;;;5.40;;
20161;SDS011;51382;53.180;15.414;2022-08-30T20:54:18;61.90;;;7.40;;
20161;SDS011;51382;53.180;15.414;2022-08-30T21:09:29;58.50;;;9.80;;
20161;SDS011;51382;53.180;15.414;2022-08-30T21:24:36;35.50;;;4.10;;
20161;SDS011;51382;53.180;15.414;2022-08-30T21:39:48;32.00;;;3.50;;
20161;SDS011;51382;53.180;15.414;2022-08-30T21:54:59;39.00;;;4.10;;
20161;SDS011;51382;53.180;15.414;2022-08-30T22:10:11;35.00;;;3.70;;
20161;SDS011;51382;53.180;15.414;2022-08-30T22:25:18;36.90;;;4.50;;
20161;SDS011;51382;53.180;15.414;2022-08-30T22:40:26;32.30;;;3.00;;
20161;SDS011;51382;53.180;15.414;2022-08-30T22:55:41;26.40;;;2.70;;
20161;SDS011;51382;53.180;15.414;2022-08-30T23:10:47;15.40;;;2.10;;
20161;SDS011;51382;53.180;15.414;2022-08-30T23:26:01;36.00;;;3.40;;
20161;SDS011;51382;53.180;15.414;2022-08-30T23:41:30;27.70;;;3.00;;
20161;SDS011;51382;53.180;15.414;2022-08-30T23:56:58;18.70;;;2.30;;
